createdAt,value
2022-07-29T00:02:14.084Z,60.23
2022-07-29T00:04:40.552Z,60.67
2022-07-29T00:07:07.017Z,60.16
2022-07-29T00:09:33.722Z,60.73
2022-07-29T00:12:11.373Z,60.80
2022-07-29T00:14:38.127Z,61.13
2022-07-29T00:17:04.581Z,61.22
2022-07-29T00:19:30.963Z,60.87
2022-07-29T00:21:59.387Z,61.10
2022-07-29T00:24:25.841Z,61.37
2022-07-29T00:26:52.262Z,61.75
2022-07-29T00:29:33.658Z,61.55
2022-07-29T00:32:01.377Z,61.77
2022-07-29T00:34:46.285Z,61.95
2022-07-29T00:37:12.667Z,62.46
2022-07-29T00:39:39.084Z,61.98
2022-07-29T00:42:05.994Z,62.43
2022-07-29T00:44:37.570Z,62.53
2022-07-29T00:47:04.090Z,62.76
2022-07-29T00:49:30.638Z,62.16
2022-07-29T00:51:57.870Z,62.35
2022-07-29T00:54:24.484Z,62.39
2022-07-29T00:56:50.878Z,62.41
2022-07-29T00:59:17.233Z,62.68
2022-07-29T01:01:43.653Z,63.00
2022-07-29T01:04:10.133Z,62.76
2022-07-29T01:06:36.962Z,62.83
2022-07-29T01:09:04.204Z,62.96
2022-07-29T01:11:30.677Z,62.95
2022-07-29T01:13:57.503Z,62.97
2022-07-29T01:16:49.174Z,63.34
2022-07-29T01:19:39.114Z,62.83
2022-07-29T01:22:28.621Z,63.25
2022-07-29T01:25:29.050Z,63.62
2022-07-29T01:28:14.493Z,63.51
2022-07-29T01:30:45.257Z,63.40
2022-07-29T01:33:36.364Z,63.81
2022-07-29T01:36:11.612Z,63.59
2022-07-29T01:38:40.421Z,63.64
2022-07-29T01:41:08.855Z,63.29
2022-07-29T01:43:54.916Z,64.07
2022-07-29T01:46:28.398Z,63.74
2022-07-29T01:49:01.138Z,64.07
2022-07-29T01:51:41.749Z,64.02
2022-07-29T01:54:15.793Z,63.90
2022-07-29T01:56:44.542Z,64.07
2022-07-29T01:59:11.822Z,63.64
2022-07-29T02:01:41.736Z,63.75
2022-07-29T02:04:11.810Z,63.93
2022-07-29T02:06:59.797Z,64.39
2022-07-29T02:09:27.491Z,64.05
2022-07-29T02:11:56.160Z,64.29
2022-07-29T02:14:24.071Z,64.08
2022-07-29T02:16:55.127Z,64.24
2022-07-29T02:19:24.330Z,64.42
2022-07-29T02:21:53.242Z,64.08
2022-07-29T02:24:20.859Z,64.03
2022-07-29T02:26:49.315Z,64.00
2022-07-29T02:29:16.339Z,64.28
2022-07-29T02:31:45.255Z,64.41
2022-07-29T02:34:13.317Z,64.47
2022-07-29T02:36:41.376Z,64.46
2022-07-29T02:39:10.597Z,64.79
2022-07-29T02:41:47.557Z,64.81
2022-07-29T02:44:18.297Z,64.77
2022-07-29T02:47:05.037Z,64.80
2022-07-29T02:49:40.952Z,64.59
2022-07-29T02:52:20.995Z,64.75
2022-07-29T02:54:52.307Z,64.61
2022-07-29T02:57:23.579Z,65.09
2022-07-29T02:59:53.780Z,64.58
2022-07-29T03:02:22.430Z,64.86
2022-07-29T03:04:50.317Z,64.57
2022-07-29T03:07:20.309Z,65.06
2022-07-29T03:09:47.262Z,64.89
2022-07-29T03:12:15.368Z,65.23
2022-07-29T03:14:43.019Z,65.14
2022-07-29T03:17:10.808Z,65.36
2022-07-29T03:19:37.353Z,65.18
2022-07-29T03:22:04.739Z,65.52
2022-07-29T03:24:33.833Z,65.11
2022-07-29T03:27:01.267Z,65.27
2022-07-29T03:29:32.921Z,65.08
2022-07-29T03:32:00.535Z,65.32
2022-07-29T03:34:29.115Z,65.35
2022-07-29T03:36:55.537Z,65.27
2022-07-29T03:39:26.548Z,65.39
2022-07-29T03:41:55.993Z,65.48
2022-07-29T03:44:23.903Z,65.47
2022-07-29T03:46:52.790Z,65.58
2022-07-29T03:49:21.510Z,65.45
2022-07-29T03:51:48.583Z,65.58
2022-07-29T03:54:15.265Z,65.47
2022-07-29T03:56:49.501Z,65.73
2022-07-29T03:59:18.605Z,65.72
2022-07-29T04:01:45.964Z,65.53
2022-07-29T04:04:13.023Z,65.53
2022-07-29T04:06:44.105Z,65.88
2022-07-29T04:09:10.764Z,65.85
2022-07-29T04:12:02.587Z,65.31
2022-07-29T04:14:26.167Z,65.19
2022-07-29T04:16:53.852Z,65.94
2022-07-29T04:19:20.240Z,65.84
2022-07-29T04:21:46.593Z,66.22
2022-07-29T04:24:13.215Z,66.28
2022-07-29T04:26:39.815Z,65.93
2022-07-29T04:29:06.215Z,65.69
2022-07-29T04:31:32.716Z,66.07
2022-07-29T04:33:59.145Z,66.07
2022-07-29T04:36:29.492Z,65.94
2022-07-29T04:38:56.541Z,65.92
2022-07-29T04:41:22.972Z,66.03
2022-07-29T04:43:50.247Z,66.28
2022-07-29T04:46:17.033Z,66.15
2022-07-29T04:48:43.567Z,66.03
2022-07-29T04:51:09.995Z,66.13
2022-07-29T04:53:36.361Z,66.19
2022-07-29T04:56:03.353Z,66.31
2022-07-29T04:58:29.706Z,66.46
2022-07-29T05:00:56.257Z,66.24
2022-07-29T05:03:22.616Z,66.34
2022-07-29T05:05:49.276Z,66.36
2022-07-29T05:08:15.673Z,66.47
2022-07-29T05:10:42.103Z,66.39
2022-07-29T05:13:08.700Z,66.47
2022-07-29T05:15:36.001Z,66.14
2022-07-29T05:18:02.616Z,66.61
2022-07-29T05:20:30.320Z,66.38
2022-07-29T05:22:58.466Z,66.44
2022-07-29T05:25:41.996Z,66.25
2022-07-29T05:28:11.132Z,66.11
2022-07-29T05:30:37.598Z,66.11
2022-07-29T05:33:04.107Z,66.55
2022-07-29T05:35:30.554Z,66.60
2022-07-29T05:37:56.941Z,66.34
2022-07-29T05:40:23.407Z,66.52
2022-07-29T05:42:49.779Z,66.58
2022-07-29T05:45:16.254Z,66.38
2022-07-29T05:47:42.683Z,66.09
2022-07-29T05:50:09.669Z,66.15
2022-07-29T05:52:36.084Z,65.69
2022-07-29T05:55:05.213Z,65.22
2022-07-29T05:57:31.955Z,65.08
2022-07-29T05:59:58.832Z,64.28
2022-07-29T06:02:25.177Z,63.94
2022-07-29T06:04:51.708Z,63.44
2022-07-29T06:07:18.258Z,61.94
2022-07-29T06:09:44.782Z,58.11
2022-07-29T06:12:11.237Z,56.26
2022-07-29T06:14:38.855Z,57.69
2022-07-29T06:17:06.565Z,59.14
2022-07-29T06:19:35.233Z,56.91
2022-07-29T06:22:01.741Z,57.51
2022-07-29T06:24:28.194Z,54.38
2022-07-29T06:26:54.617Z,54.67
2022-07-29T06:29:21.049Z,56.08
2022-07-29T06:31:47.423Z,56.49
2022-07-29T06:34:14.210Z,57.69
2022-07-29T06:36:41.006Z,58.58
2022-07-29T06:39:08.519Z,58.86
2022-07-29T06:41:35.448Z,59.19
2022-07-29T06:44:02.263Z,58.92
2022-07-29T06:46:28.733Z,58.98
2022-07-29T06:48:55.527Z,58.27
2022-07-29T06:51:23.878Z,58.73
2022-07-29T06:53:59.322Z,59.17
2022-07-29T06:56:40.322Z,58.60
2022-07-29T06:59:11.303Z,57.93
2022-07-29T07:01:39.791Z,57.02
2022-07-29T07:04:06.638Z,54.31
2022-07-29T07:06:33.530Z,55.34
2022-07-29T07:08:59.901Z,54.51
2022-07-29T07:11:26.350Z,56.09
2022-07-29T07:13:52.701Z,56.20
2022-07-29T07:16:19.221Z,55.60
2022-07-29T07:18:46.231Z,54.12
2022-07-29T07:21:13.226Z,54.69
2022-07-29T07:23:45.765Z,54.85
2022-07-29T07:26:12.116Z,53.92
2022-07-29T07:28:38.507Z,54.25
2022-07-29T07:31:04.894Z,54.14
2022-07-29T07:33:31.268Z,53.79
2022-07-29T07:35:57.705Z,53.69
2022-07-29T07:38:24.065Z,53.97
2022-07-29T07:40:50.432Z,52.55
2022-07-29T07:43:16.812Z,51.90
2022-07-29T07:45:43.278Z,52.36
2022-07-29T07:48:11.105Z,52.45
2022-07-29T07:50:37.979Z,51.71
2022-07-29T07:53:04.671Z,52.09
2022-07-29T07:55:47.467Z,51.02
2022-07-29T07:58:17.441Z,50.19
2022-07-29T08:00:43.914Z,51.71
2022-07-29T08:03:17.009Z,49.82
2022-07-29T08:05:44.292Z,49.63
2022-07-29T08:08:10.895Z,49.55
2022-07-29T08:10:56.097Z,48.94
2022-07-29T08:13:24.675Z,49.96
2022-07-29T08:16:11.848Z,50.37
2022-07-29T08:18:39.109Z,50.32
2022-07-29T08:21:05.734Z,51.01
2022-07-29T08:23:46.211Z,51.28
2022-07-29T08:26:15.611Z,50.32
2022-07-29T08:28:47.057Z,50.43
2022-07-29T08:31:14.563Z,50.07
2022-07-29T08:33:41.603Z,49.29
2022-07-29T08:36:08.175Z,47.97
2022-07-29T08:38:34.944Z,48.31
2022-07-29T08:41:02.820Z,47.15
2022-07-29T08:43:29.932Z,47.34
2022-07-29T08:45:56.522Z,47.80
2022-07-29T08:48:24.407Z,47.26
2022-07-29T08:50:56.663Z,48.80
2022-07-29T08:53:27.321Z,48.91
2022-07-29T08:55:54.077Z,49.09
2022-07-29T08:58:23.343Z,48.35
2022-07-29T09:00:55.526Z,47.55
2022-07-29T09:03:25.532Z,47.84
2022-07-29T09:05:52.845Z,46.32
2022-07-29T09:08:20.953Z,47.80
2022-07-29T09:10:47.765Z,45.68
2022-07-29T09:13:14.188Z,44.88
2022-07-29T09:15:40.593Z,44.29
2022-07-29T09:18:06.996Z,43.86
2022-07-29T09:21:08.445Z,42.92
2022-07-29T09:23:34.900Z,42.57
2022-07-29T09:26:06.786Z,42.12
2022-07-29T09:28:33.175Z,41.74
2022-07-29T09:31:00.014Z,42.16
2022-07-29T09:33:40.106Z,41.56
2022-07-29T09:36:08.668Z,40.79
2022-07-29T09:38:36.363Z,43.14
2022-07-29T09:41:06.340Z,39.85
2022-07-29T09:43:33.632Z,40.51
2022-07-29T09:46:13.996Z,39.96
2022-07-29T09:48:40.802Z,39.38
2022-07-29T09:51:20.607Z,40.56
2022-07-29T09:53:48.688Z,40.01
2022-07-29T09:56:15.202Z,39.83
2022-07-29T09:58:41.576Z,39.64
2022-07-29T10:01:08.035Z,40.37
2022-07-29T10:03:51.777Z,40.34
2022-07-29T10:06:18.249Z,40.62
2022-07-29T10:08:44.898Z,41.92
2022-07-29T10:11:12.496Z,41.29
2022-07-29T10:13:39.765Z,40.33
2022-07-29T10:16:07.226Z,40.62
2022-07-29T10:18:34.706Z,40.45
2022-07-29T10:21:02.086Z,40.32
2022-07-29T10:23:30.265Z,41.82
2022-07-29T10:26:13.813Z,42.29
2022-07-29T10:28:40.167Z,42.12
2022-07-29T10:31:09.066Z,41.55
2022-07-29T10:34:12.416Z,41.35
2022-07-29T10:36:53.687Z,40.44
2022-07-29T10:39:41.915Z,40.49
2022-07-29T10:42:34.161Z,40.43
2022-07-29T10:45:04.413Z,38.40
2022-07-29T10:47:31.599Z,38.53
2022-07-29T10:50:03.659Z,38.06
2022-07-29T10:52:53.613Z,38.92
2022-07-29T10:55:39.256Z,39.65
2022-07-29T10:58:24.360Z,38.44
2022-07-29T11:00:52.774Z,37.80
2022-07-29T11:03:52.203Z,38.52
2022-07-29T11:06:26.904Z,38.14
2022-07-29T11:09:18.088Z,38.86
2022-07-29T11:12:00.065Z,38.53
2022-07-29T11:14:58.508Z,37.96
2022-07-29T11:17:24.900Z,36.65
2022-07-29T11:19:52.317Z,37.56
2022-07-29T11:22:35.656Z,37.06
2022-07-29T11:25:16.999Z,36.98
2022-07-29T11:27:45.826Z,37.03
2022-07-29T11:30:13.099Z,37.46
2022-07-29T11:32:44.802Z,38.11
2022-07-29T11:35:22.274Z,36.43
2022-07-29T11:38:23.291Z,35.81
2022-07-29T11:41:29.956Z,35.26
2022-07-29T11:44:02.375Z,35.43
2022-07-29T11:46:51.877Z,35.23
2022-07-29T11:49:31.551Z,34.52
2022-07-29T11:52:02.397Z,35.67
2022-07-29T11:54:57.117Z,34.35
2022-07-29T11:57:22.076Z,33.47
2022-07-29T11:59:48.750Z,34.01
2022-07-29T12:02:37.490Z,33.74
2022-07-29T12:05:10.806Z,33.91
2022-07-29T12:07:39.446Z,32.81
2022-07-29T12:10:11.311Z,32.64
2022-07-29T12:12:53.730Z,32.96
2022-07-29T12:15:24.953Z,32.40
2022-07-29T12:18:18.415Z,33.05
2022-07-29T12:20:45.947Z,33.29
2022-07-29T12:23:16.237Z,32.55
2022-07-29T12:25:44.424Z,33.07
2022-07-29T12:28:26.891Z,33.75
2022-07-29T12:30:54.101Z,34.06
2022-07-29T12:33:25.451Z,32.74
2022-07-29T12:36:06.802Z,32.13
2022-07-29T12:38:38.080Z,32.77
2022-07-29T12:41:05.028Z,33.17
2022-07-29T12:43:32.528Z,32.64
2022-07-29T12:46:13.266Z,32.10
2022-07-29T12:48:42.374Z,32.48
2022-07-29T12:51:10.965Z,31.81
2022-07-29T12:53:37.849Z,31.89
2022-07-29T12:56:20.745Z,31.02
2022-07-29T12:58:52.620Z,32.87
2022-07-29T13:01:20.935Z,31.93
2022-07-29T13:03:57.635Z,31.98
2022-07-29T13:06:46.110Z,31.25
2022-07-29T13:09:20.652Z,31.30
2022-07-29T13:11:48.943Z,30.11
2022-07-29T13:14:32.522Z,31.82
2022-07-29T13:17:12.172Z,32.21
2022-07-29T13:19:47.243Z,30.96
2022-07-29T13:22:16.050Z,29.76
2022-07-29T13:24:49.480Z,31.88
2022-07-29T13:27:17.260Z,31.61
2022-07-29T13:29:44.113Z,31.24
2022-07-29T13:32:12.815Z,29.29
2022-07-29T13:34:39.303Z,29.41
2022-07-29T13:37:06.160Z,30.15
2022-07-29T13:39:32.650Z,31.54
2022-07-29T13:41:59.608Z,31.00
2022-07-29T13:44:26.279Z,32.60
2022-07-29T13:46:52.640Z,31.28
2022-07-29T13:49:19.086Z,31.54
2022-07-29T13:51:45.488Z,30.45
2022-07-29T13:54:11.852Z,31.91
2022-07-29T13:56:38.293Z,31.21
2022-07-29T13:59:04.685Z,30.90
2022-07-29T14:01:31.719Z,31.26
2022-07-29T14:03:58.229Z,31.12
2022-07-29T14:06:24.579Z,29.71
2022-07-29T14:08:51.812Z,29.58
2022-07-29T14:11:18.214Z,30.71
2022-07-29T14:13:45.472Z,31.04
2022-07-29T14:16:11.938Z,32.51
2022-07-29T14:18:38.376Z,31.63
2022-07-29T14:21:04.773Z,30.67
2022-07-29T14:23:31.325Z,30.45
2022-07-29T14:25:58.232Z,29.85
2022-07-29T14:28:24.617Z,31.33
2022-07-29T14:30:51.025Z,31.34
2022-07-29T14:33:17.446Z,30.55
2022-07-29T14:35:44.510Z,30.32
2022-07-29T14:38:13.002Z,30.51
2022-07-29T14:40:39.381Z,31.39
2022-07-29T14:43:05.825Z,30.62
2022-07-29T14:45:32.572Z,31.66
2022-07-29T14:47:59.545Z,30.39
2022-07-29T14:50:31.608Z,30.13
2022-07-29T14:52:58.922Z,30.39
2022-07-29T14:55:25.388Z,30.02
2022-07-29T14:57:51.825Z,29.16
2022-07-29T15:00:18.754Z,30.85
2022-07-29T15:03:01.536Z,30.70
2022-07-29T15:05:28.708Z,30.64
2022-07-29T15:07:55.076Z,29.79
2022-07-29T15:10:21.590Z,29.97
2022-07-29T15:12:51.279Z,30.19
2022-07-29T15:15:17.668Z,30.43
2022-07-29T15:17:44.044Z,29.36
2022-07-29T15:20:13.134Z,30.21
2022-07-29T15:22:40.101Z,29.63
2022-07-29T15:25:06.978Z,29.47
2022-07-29T15:27:33.552Z,29.68
2022-07-29T15:30:00.011Z,29.99
2022-07-29T15:32:29.255Z,29.99
2022-07-29T15:34:55.644Z,29.78
2022-07-29T15:37:22.048Z,29.14
2022-07-29T15:39:48.412Z,28.42
2022-07-29T15:42:14.788Z,29.53
2022-07-29T15:44:44.226Z,29.30
2022-07-29T15:47:10.680Z,29.37
2022-07-29T15:49:46.723Z,29.17
2022-07-29T15:52:26.181Z,28.41
2022-07-29T15:54:56.661Z,28.97
2022-07-29T15:57:24.525Z,29.38
2022-07-29T15:59:51.814Z,29.37
2022-07-29T16:02:18.334Z,29.40
2022-07-29T16:04:44.713Z,29.99
2022-07-29T16:07:11.059Z,30.12
2022-07-29T16:09:37.421Z,29.55
2022-07-29T16:12:10.533Z,29.46
2022-07-29T16:14:42.911Z,29.90
2022-07-29T16:17:09.335Z,29.16
2022-07-29T16:19:43.590Z,29.66
2022-07-29T16:22:12.368Z,30.07
2022-07-29T16:24:39.102Z,29.49
2022-07-29T16:27:05.757Z,29.86
2022-07-29T16:29:32.154Z,28.88
2022-07-29T16:31:58.610Z,29.72
2022-07-29T16:34:25.047Z,29.34
2022-07-29T16:36:51.385Z,29.72
2022-07-29T16:39:17.800Z,29.08
2022-07-29T16:41:44.185Z,30.02
2022-07-29T16:44:10.597Z,30.54
2022-07-29T16:46:37.414Z,29.81
2022-07-29T16:49:05.462Z,30.21
2022-07-29T16:51:32.540Z,30.15
2022-07-29T16:53:59.062Z,30.71
2022-07-29T16:56:25.657Z,30.28
2022-07-29T16:58:52.048Z,30.15
2022-07-29T17:01:18.545Z,30.63
2022-07-29T17:04:03.668Z,29.88
2022-07-29T17:06:30.276Z,29.09
2022-07-29T17:08:57.075Z,29.65
2022-07-29T17:11:53.270Z,29.64
2022-07-29T17:14:10.294Z,30.33
2022-07-29T17:16:36.706Z,30.47
2022-07-29T17:19:03.576Z,30.86
2022-07-29T17:21:29.916Z,30.65
2022-07-29T17:23:56.344Z,30.30
2022-07-29T17:26:22.778Z,30.34
2022-07-29T17:28:49.170Z,30.23
2022-07-29T17:31:15.885Z,30.39
2022-07-29T17:33:42.403Z,30.46
2022-07-29T17:36:24.093Z,29.86
2022-07-29T17:38:58.331Z,29.79
2022-07-29T17:41:28.232Z,29.49
2022-07-29T17:43:54.835Z,29.78
2022-07-29T17:46:24.601Z,30.52
2022-07-29T17:48:51.139Z,30.04
2022-07-29T17:51:20.604Z,29.74
2022-07-29T17:53:47.007Z,30.45
2022-07-29T17:56:14.037Z,30.57
2022-07-29T17:58:40.870Z,30.54
2022-07-29T18:01:07.569Z,30.66
2022-07-29T18:03:37.279Z,30.98
2022-07-29T18:06:04.979Z,30.68
2022-07-29T18:08:31.541Z,31.15
2022-07-29T18:10:57.916Z,31.51
2022-07-29T18:13:24.692Z,31.91
2022-07-29T18:15:51.091Z,32.58
2022-07-29T18:18:18.517Z,33.70
2022-07-29T18:20:45.493Z,34.92
2022-07-29T18:23:12.228Z,35.96
2022-07-29T18:25:39.382Z,36.62
2022-07-29T18:28:06.739Z,37.32
2022-07-29T18:30:37.735Z,37.82
2022-07-29T18:33:20.785Z,38.49
2022-07-29T18:35:49.405Z,38.93
2022-07-29T18:38:16.630Z,39.53
2022-07-29T18:40:44.472Z,39.82
2022-07-29T18:43:11.962Z,40.67
2022-07-29T18:45:39.671Z,41.85
2022-07-29T18:48:12.802Z,41.93
2022-07-29T18:50:42.049Z,42.14
2022-07-29T18:53:08.732Z,42.67
2022-07-29T18:55:35.277Z,43.00
2022-07-29T18:58:04.175Z,43.53
2022-07-29T19:00:30.550Z,43.73
2022-07-29T19:02:59.498Z,43.75
2022-07-29T19:05:28.147Z,44.34
2022-07-29T19:07:57.116Z,44.25
2022-07-29T19:10:23.551Z,44.80
2022-07-29T19:12:52.709Z,44.75
2022-07-29T19:15:20.069Z,45.29
2022-07-29T19:17:47.890Z,45.67
2022-07-29T19:20:14.418Z,45.70
2022-07-29T19:22:40.859Z,46.13
2022-07-29T19:25:07.822Z,46.50
2022-07-29T19:27:34.190Z,46.93
2022-07-29T19:30:00.558Z,46.65
2022-07-29T19:32:26.951Z,47.54
2022-07-29T19:35:12.507Z,47.74
2022-07-29T19:37:38.993Z,48.54
2022-07-29T19:40:06.698Z,49.48
2022-07-29T19:42:33.432Z,50.04
2022-07-29T19:45:02.334Z,50.31
2022-07-29T19:47:28.779Z,50.77
2022-07-29T19:49:55.168Z,50.80
2022-07-29T19:52:21.614Z,51.32
2022-07-29T19:54:48.134Z,51.28
2022-07-29T19:57:14.516Z,51.78
2022-07-29T19:59:41.226Z,52.72
2022-07-29T20:02:11.040Z,53.27
2022-07-29T20:04:38.462Z,53.53
2022-07-29T20:07:05.883Z,54.27
2022-07-29T20:09:32.390Z,54.48
2022-07-29T20:11:59.076Z,55.46
2022-07-29T20:14:25.458Z,55.77
2022-07-29T20:16:53.962Z,56.35
2022-07-29T20:19:20.388Z,56.55
2022-07-29T20:21:46.757Z,57.39
2022-07-29T20:24:13.132Z,57.71
2022-07-29T20:26:39.500Z,58.19
2022-07-29T20:29:05.952Z,58.42
2022-07-29T20:31:35.703Z,58.94
2022-07-29T20:34:02.098Z,59.24
2022-07-29T20:36:28.572Z,59.57
2022-07-29T20:38:55.545Z,59.97
2022-07-29T20:41:22.342Z,60.08
2022-07-29T20:43:51.369Z,61.12
2022-07-29T20:46:18.244Z,61.16
2022-07-29T20:48:45.652Z,61.64
2022-07-29T20:51:12.185Z,62.06
2022-07-29T20:53:39.859Z,62.24
2022-07-29T20:56:07.529Z,62.62
2022-07-29T20:58:34.584Z,63.03
2022-07-29T21:01:01.245Z,62.67
2022-07-29T21:03:27.629Z,63.42
2022-07-29T21:05:53.998Z,64.00
2022-07-29T21:08:20.431Z,64.15
2022-07-29T21:10:46.803Z,64.19
2022-07-29T21:13:14.305Z,64.33
2022-07-29T21:15:43.994Z,65.07
2022-07-29T21:18:26.678Z,65.63
2022-07-29T21:21:00.829Z,65.48
2022-07-29T21:23:27.804Z,66.09
2022-07-29T21:25:55.173Z,65.93
2022-07-29T21:28:27.792Z,66.80
2022-07-29T21:31:00.170Z,67.29
2022-07-29T21:33:28.039Z,67.60
2022-07-29T21:38:41.638Z,68.38
2022-07-29T21:41:08.214Z,68.58
2022-07-29T21:43:34.631Z,68.43
2022-07-29T21:46:01.407Z,69.04
2022-07-29T21:48:28.605Z,69.62
2022-07-29T21:50:55.387Z,69.16
2022-07-29T21:53:24.971Z,69.51
2022-07-29T21:55:56.124Z,69.54
2022-07-29T21:58:23.637Z,69.59
2022-07-29T22:00:50.132Z,70.29
2022-07-29T22:03:16.585Z,69.65
2022-07-29T22:05:43.646Z,69.50
2022-07-29T22:08:10.445Z,69.92
2022-07-29T22:10:36.907Z,70.55
2022-07-29T22:13:03.813Z,70.42
2022-07-29T22:15:30.732Z,70.61
2022-07-29T22:17:57.799Z,70.01
2022-07-29T22:20:24.417Z,70.56
2022-07-29T22:22:51.029Z,71.20
2022-07-29T22:25:17.801Z,71.36
2022-07-29T22:27:44.516Z,71.52
2022-07-29T22:30:11.835Z,71.75
2022-07-29T22:32:38.238Z,71.94
2022-07-29T22:35:05.055Z,72.19
2022-07-29T22:37:31.678Z,72.89
2022-07-29T22:39:58.152Z,72.75
2022-07-29T22:42:24.535Z,72.79
2022-07-29T22:44:51.210Z,73.07
2022-07-29T22:47:17.618Z,73.35
2022-07-29T22:49:44.096Z,73.33
2022-07-29T22:52:10.746Z,73.42
2022-07-29T22:54:38.240Z,73.20
2022-07-29T22:57:05.597Z,73.65
2022-07-29T22:59:32.091Z,73.59
2022-07-29T23:01:58.561Z,73.64
2022-07-29T23:04:25.465Z,73.79
2022-07-29T23:06:51.845Z,74.12
2022-07-29T23:09:18.325Z,74.42
2022-07-29T23:11:44.920Z,74.30
2022-07-29T23:14:11.302Z,74.68
2022-07-29T23:16:37.862Z,74.88
2022-07-29T23:19:04.225Z,75.39
2022-07-29T23:21:30.657Z,75.27
2022-07-29T23:23:57.026Z,75.89
2022-07-29T23:26:23.396Z,75.49
2022-07-29T23:28:49.752Z,75.72
2022-07-29T23:31:16.222Z,75.89
2022-07-29T23:33:42.642Z,76.10
2022-07-29T23:36:09.040Z,76.23
2022-07-29T23:38:35.391Z,76.37
2022-07-29T23:41:02.265Z,76.59
2022-07-29T23:43:28.840Z,76.96
2022-07-29T23:45:56.216Z,76.95
2022-07-29T23:48:24.595Z,77.17
2022-07-29T23:50:51.016Z,77.24
2022-07-29T23:53:17.556Z,77.53
2022-07-29T23:55:43.930Z,77.83
2022-07-29T23:58:10.337Z,77.73
